createdAt,value
2023-08-11T00:00:00.380Z,93
2023-08-11T00:04:00.455Z,93
2023-08-11T00:08:00.373Z,93
2023-08-11T00:12:00.355Z,93
2023-08-11T00:16:00.399Z,94
2023-08-11T00:20:00.381Z,94
2023-08-11T00:24:00.373Z,94
2023-08-11T00:28:00.383Z,94
2023-08-11T00:32:00.397Z,94
2023-08-11T00:36:00.376Z,94
2023-08-11T00:40:00.379Z,94
2023-08-11T00:44:00.369Z,94
2023-08-11T00:48:00.449Z,94
2023-08-11T00:52:00.380Z,94
2023-08-11T00:56:00.376Z,94
2023-08-11T01:00:00.446Z,94
2023-08-11T01:04:00.368Z,94
2023-08-11T01:08:00.397Z,94
2023-08-11T01:12:00.366Z,94
2023-08-11T01:16:00.433Z,94
2023-08-11T01:20:00.389Z,94
2023-08-11T01:24:00.367Z,94
2023-08-11T01:28:00.383Z,94
2023-08-11T01:32:00.405Z,94
2023-08-11T01:36:00.373Z,94
2023-08-11T01:40:00.397Z,94
2023-08-11T01:44:00.376Z,94
2023-08-11T01:48:00.434Z,94
2023-08-11T01:52:00.384Z,94
2023-08-11T01:56:00.397Z,94
2023-08-11T02:00:00.449Z,94
2023-08-11T02:04:00.472Z,94
2023-08-11T02:08:00.478Z,94
2023-08-11T02:12:00.390Z,94
2023-08-11T02:16:00.392Z,94
2023-08-11T02:20:00.372Z,94
2023-08-11T02:24:00.376Z,94
2023-08-11T02:28:00.356Z,94
2023-08-11T02:32:00.396Z,94
2023-08-11T02:36:00.385Z,94
2023-08-11T02:40:00.365Z,95
2023-08-11T02:44:00.373Z,95
2023-08-11T02:48:00.404Z,95
2023-08-11T02:52:00.377Z,95
2023-08-11T02:56:00.368Z,95
2023-08-11T03:00:00.359Z,95
2023-08-11T03:04:00.376Z,95
2023-08-11T03:08:00.369Z,95
2023-08-11T03:12:00.372Z,95
2023-08-11T03:16:00.413Z,95
2023-08-11T03:20:00.390Z,95
2023-08-11T03:24:00.416Z,95
2023-08-11T03:28:00.375Z,95
2023-08-11T03:32:00.418Z,95
2023-08-11T03:36:00.402Z,95
2023-08-11T03:40:00.371Z,95
2023-08-11T03:44:00.387Z,95
2023-08-11T03:48:00.413Z,95
2023-08-11T03:52:00.403Z,95
2023-08-11T03:56:00.388Z,95
2023-08-11T04:00:00.371Z,95
2023-08-11T04:04:00.401Z,95
2023-08-11T04:08:00.354Z,95
2023-08-11T04:12:00.375Z,95
2023-08-11T04:16:00.393Z,95
2023-08-11T04:20:00.381Z,95
2023-08-11T04:24:00.358Z,95
2023-08-11T04:28:00.390Z,95
2023-08-11T04:32:00.344Z,95
2023-08-11T04:36:00.386Z,95
2023-08-11T04:40:00.402Z,95
2023-08-11T04:44:00.360Z,95
2023-08-11T04:48:00.409Z,95
2023-08-11T04:52:00.352Z,95
2023-08-11T04:56:00.363Z,95
2023-08-11T05:00:00.404Z,95
2023-08-11T05:04:00.570Z,95
2023-08-11T05:08:00.386Z,95
2023-08-11T05:12:00.350Z,95
2023-08-11T05:16:00.430Z,95
2023-08-11T05:20:00.547Z,95
2023-08-11T05:24:00.380Z,95
2023-08-11T05:28:00.382Z,95
2023-08-11T05:32:00.470Z,95
2023-08-11T05:36:00.382Z,95
2023-08-11T05:40:00.368Z,94
2023-08-11T05:44:00.358Z,94
2023-08-11T05:48:00.445Z,93
2023-08-11T05:52:00.395Z,93
2023-08-11T05:56:00.389Z,93
2023-08-11T06:00:00.438Z,93
2023-08-11T06:04:00.444Z,92
2023-08-11T06:08:05.873Z,91
2023-08-11T06:12:00.390Z,90
2023-08-11T06:16:00.413Z,90
2023-08-11T06:20:00.420Z,88
2023-08-11T06:24:00.380Z,87
2023-08-11T06:28:00.397Z,84
2023-08-11T06:32:00.382Z,81
2023-08-11T06:36:00.398Z,81
2023-08-11T06:40:00.388Z,78
2023-08-11T06:44:00.365Z,75
2023-08-11T06:48:00.476Z,76
2023-08-11T06:52:00.366Z,71
2023-08-11T06:56:00.410Z,70
2023-08-11T07:00:00.518Z,69
2023-08-11T07:04:02.075Z,69
2023-08-11T07:08:00.398Z,68
2023-08-11T07:12:00.361Z,67
2023-08-11T07:16:00.371Z,66
2023-08-11T07:20:00.411Z,67
2023-08-11T07:24:00.413Z,66
2023-08-11T07:28:00.400Z,66
2023-08-11T07:32:00.366Z,66
2023-08-11T07:36:00.378Z,64
2023-08-11T07:40:00.374Z,65
2023-08-11T07:44:00.390Z,62
2023-08-11T07:48:00.375Z,62
2023-08-11T07:52:00.407Z,60
2023-08-11T07:56:00.361Z,60
2023-08-11T08:00:00.382Z,59
2023-08-11T08:04:00.365Z,60
2023-08-11T08:08:00.385Z,59
2023-08-11T08:12:00.367Z,59
2023-08-11T08:16:00.395Z,56
2023-08-11T08:20:00.374Z,54
2023-08-11T08:24:00.408Z,53
2023-08-11T08:28:06.154Z,55
2023-08-11T08:32:00.384Z,55
2023-08-11T08:36:00.380Z,52
2023-08-11T08:40:00.417Z,52
2023-08-11T08:44:00.391Z,52
2023-08-11T08:48:00.513Z,51
2023-08-11T08:52:02.141Z,53
2023-08-11T08:56:00.362Z,52
2023-08-11T09:00:00.423Z,53
2023-08-11T09:04:00.625Z,53
2023-08-11T09:08:00.396Z,53
2023-08-11T09:12:00.400Z,51
2023-08-11T09:16:01.923Z,51
2023-08-11T09:20:00.376Z,50
2023-08-11T09:24:00.386Z,53
2023-08-11T09:28:00.375Z,53
2023-08-11T09:32:00.405Z,52
2023-08-11T09:36:00.390Z,52
2023-08-11T09:40:00.352Z,52
2023-08-11T09:44:00.396Z,53
2023-08-11T09:48:00.443Z,52
2023-08-11T09:52:00.376Z,53
2023-08-11T09:56:00.376Z,54
2023-08-11T10:00:00.408Z,54
2023-08-11T10:04:00.447Z,55
2023-08-11T10:08:00.400Z,55
2023-08-11T10:12:00.485Z,54
2023-08-11T10:16:00.436Z,54
2023-08-11T10:20:00.400Z,52
2023-08-11T10:24:00.372Z,55
2023-08-11T10:28:00.370Z,53
2023-08-11T10:32:00.383Z,55
2023-08-11T10:36:00.378Z,54
2023-08-11T10:40:01.144Z,52
2023-08-11T10:44:00.378Z,55
2023-08-11T10:48:00.491Z,54
2023-08-11T10:52:00.350Z,53
2023-08-11T10:56:00.377Z,55
2023-08-11T11:00:00.405Z,55
2023-08-11T11:04:00.394Z,53
2023-08-11T11:08:00.366Z,55
2023-08-11T11:12:00.395Z,50
2023-08-11T11:16:00.416Z,52
2023-08-11T11:20:03.016Z,51
2023-08-11T11:24:00.402Z,52
2023-08-11T11:28:00.375Z,51
2023-08-11T11:32:00.405Z,52
2023-08-11T11:36:00.370Z,52
2023-08-11T11:40:00.377Z,49
2023-08-11T11:44:00.512Z,52
2023-08-11T11:48:00.394Z,50
2023-08-11T11:52:00.407Z,51
2023-08-11T11:56:00.381Z,49
2023-08-11T12:00:00.384Z,49
2023-08-11T12:04:00.416Z,50
2023-08-11T12:08:00.391Z,47
2023-08-11T12:12:00.389Z,50
2023-08-11T12:16:00.483Z,49
2023-08-11T12:20:00.384Z,49
2023-08-11T12:24:00.365Z,48
2023-08-11T12:28:00.365Z,48
2023-08-11T12:32:00.381Z,48
2023-08-11T12:36:00.385Z,48
2023-08-11T12:40:00.387Z,49
2023-08-11T12:44:00.379Z,49
2023-08-11T12:48:00.392Z,47
2023-08-11T12:52:00.376Z,48
2023-08-11T12:56:00.371Z,48
2023-08-11T13:00:00.396Z,47
2023-08-11T13:04:00.493Z,48
2023-08-11T13:08:00.396Z,47
2023-08-11T13:12:00.375Z,48
2023-08-11T13:16:00.405Z,49
2023-08-11T13:20:00.383Z,48
2023-08-11T13:24:00.364Z,48
2023-08-11T13:28:00.404Z,47
2023-08-11T13:32:00.469Z,47
2023-08-11T13:36:00.379Z,47
2023-08-11T13:40:00.369Z,48
2023-08-11T13:44:00.363Z,48
2023-08-11T13:48:00.418Z,46
2023-08-11T13:52:00.354Z,48
2023-08-11T13:56:00.395Z,46
2023-08-11T14:00:00.433Z,46
2023-08-11T14:04:00.352Z,46
2023-08-11T14:08:00.370Z,46
2023-08-11T14:12:00.373Z,46
2023-08-11T14:16:00.420Z,46
2023-08-11T14:20:00.356Z,46
2023-08-11T14:24:00.382Z,45
2023-08-11T14:28:00.405Z,45
2023-08-11T14:32:13.835Z,44
2023-08-11T14:40:00.411Z,45
2023-08-11T14:44:00.379Z,44
2023-08-11T14:48:00.456Z,45
2023-08-11T14:52:00.373Z,45
2023-08-11T14:56:00.396Z,45
2023-08-11T15:00:00.395Z,45
2023-08-11T15:04:00.395Z,47
2023-08-11T15:08:00.382Z,47
2023-08-11T15:12:00.393Z,47
2023-08-11T15:16:00.365Z,45
2023-08-11T15:20:00.389Z,46
2023-08-11T15:24:00.384Z,45
2023-08-11T15:28:00.372Z,46
2023-08-11T15:32:00.391Z,45
2023-08-11T15:36:00.419Z,45
2023-08-11T15:40:00.420Z,45
2023-08-11T15:44:00.422Z,45
2023-08-11T15:48:00.517Z,46
2023-08-11T15:52:00.391Z,46
2023-08-11T15:56:00.400Z,46
2023-08-11T16:00:00.368Z,47
2023-08-11T16:04:00.442Z,47
2023-08-11T16:08:00.373Z,48
2023-08-11T16:12:00.382Z,47
2023-08-11T16:16:00.490Z,48
2023-08-11T16:20:00.382Z,48
2023-08-11T16:24:00.378Z,49
2023-08-11T16:28:00.348Z,50
2023-08-11T16:32:00.412Z,50
2023-08-11T16:36:00.359Z,49
2023-08-11T16:40:00.365Z,50
2023-08-11T16:44:00.375Z,49
2023-08-11T16:48:00.436Z,50
2023-08-11T16:52:00.372Z,50
2023-08-11T16:56:00.392Z,51
2023-08-11T17:00:00.369Z,54
2023-08-11T17:04:00.488Z,54
2023-08-11T17:08:00.384Z,54
2023-08-11T17:12:00.386Z,54
2023-08-11T17:16:00.426Z,55
2023-08-11T17:20:00.361Z,56
2023-08-11T17:24:00.402Z,55
2023-08-11T17:28:00.359Z,60
2023-08-11T17:32:00.356Z,63
2023-08-11T17:36:00.383Z,64
2023-08-11T17:40:00.391Z,66
2023-08-11T17:44:00.401Z,68
2023-08-11T17:48:00.388Z,69
2023-08-11T17:52:00.402Z,70
2023-08-11T17:56:00.381Z,70
2023-08-11T18:00:00.384Z,72
2023-08-11T18:04:00.396Z,73
2023-08-11T18:08:00.396Z,74
2023-08-11T18:12:00.364Z,75
2023-08-11T18:16:00.388Z,75
2023-08-11T18:20:00.388Z,76
2023-08-11T18:24:00.402Z,77
2023-08-11T18:28:00.394Z,78
2023-08-11T18:32:00.369Z,78
2023-08-11T18:36:00.376Z,79
2023-08-11T18:40:00.404Z,79
2023-08-11T18:44:00.411Z,80
2023-08-11T18:48:00.415Z,80
2023-08-11T18:52:00.394Z,81
2023-08-11T18:56:00.372Z,81
2023-08-11T19:00:00.377Z,82
2023-08-11T19:04:00.425Z,82
2023-08-11T19:08:00.379Z,83
2023-08-11T19:12:00.368Z,83
2023-08-11T19:16:00.492Z,84
2023-08-11T19:20:00.384Z,84
2023-08-11T19:24:00.387Z,85
2023-08-11T19:28:00.373Z,85
2023-08-11T19:32:00.423Z,86
2023-08-11T19:36:00.365Z,86
2023-08-11T19:40:00.407Z,87
2023-08-11T19:44:00.374Z,87
2023-08-11T19:48:00.417Z,87
2023-08-11T19:52:00.392Z,88
2023-08-11T19:56:00.375Z,88
2023-08-11T20:00:00.367Z,89
2023-08-11T20:04:00.357Z,89
2023-08-11T20:08:00.383Z,89
2023-08-11T20:12:00.373Z,90
2023-08-11T20:16:00.395Z,90
2023-08-11T20:20:00.379Z,90
2023-08-11T20:24:00.375Z,90
2023-08-11T20:28:00.387Z,90
2023-08-11T20:32:00.357Z,90
2023-08-11T20:36:00.401Z,90
2023-08-11T20:40:00.369Z,90
2023-08-11T20:44:00.371Z,90
2023-08-11T20:48:00.388Z,90
2023-08-11T20:52:00.396Z,91
2023-08-11T20:56:00.365Z,91
2023-08-11T21:00:00.378Z,91
2023-08-11T21:04:00.456Z,90
2023-08-11T21:08:00.387Z,91
2023-08-11T21:12:00.355Z,91
2023-08-11T21:16:00.369Z,91
2023-08-11T21:20:00.389Z,91
2023-08-11T21:24:00.409Z,91
2023-08-11T21:28:00.401Z,91
2023-08-11T21:32:00.415Z,91
2023-08-11T21:36:00.369Z,91
2023-08-11T21:40:00.381Z,91
2023-08-11T21:44:00.377Z,91
2023-08-11T21:48:00.457Z,91
2023-08-11T21:52:00.395Z,91
2023-08-11T21:56:00.425Z,91
2023-08-11T22:00:00.365Z,91
2023-08-11T22:04:00.381Z,91
2023-08-11T22:08:00.373Z,91
2023-08-11T22:12:00.404Z,91
2023-08-11T22:16:00.428Z,91
2023-08-11T22:20:00.372Z,91
2023-08-11T22:24:00.408Z,91
2023-08-11T22:28:00.356Z,90
2023-08-11T22:32:00.387Z,90
2023-08-11T22:36:00.379Z,90
2023-08-11T22:40:00.378Z,90
2023-08-11T22:44:00.361Z,91
2023-08-11T22:48:00.386Z,91
2023-08-11T22:52:00.440Z,91
2023-08-11T22:56:00.388Z,91
2023-08-11T23:00:00.433Z,91
2023-08-11T23:04:00.431Z,91
2023-08-11T23:08:00.352Z,91
2023-08-11T23:12:00.409Z,91
2023-08-11T23:16:00.409Z,92
2023-08-11T23:20:00.380Z,92
2023-08-11T23:24:00.409Z,92
2023-08-11T23:28:00.376Z,92
2023-08-11T23:32:00.416Z,92
2023-08-11T23:36:00.379Z,92
2023-08-11T23:40:00.391Z,92
2023-08-11T23:44:00.377Z,92
2023-08-11T23:48:00.468Z,92
2023-08-11T23:52:00.373Z,92
2023-08-11T23:56:00.547Z,92
